Time;durP1;ratioP1;P1;durP2;ratioP2;P2;SDS_P1;SDS_P2;PMS_P1;PMS_P2;Temp;Humidity;BMP_temperature;BMP_pressure;BME280_temperature;BME280_humidity;BME280_pressure;Samples;Min_cycle;Max_cycle;Signal;HPM_P1;HPM_P2
2021/12/29 00:00:59;;;;;;;;;10.33;3.33;;;;;;;;5001161;28;45459;-67
2021/12/29 00:03:25;;;;;;;;;17.00;5.33;;;;;;;;5019354;28;45520;-67
2021/12/29 00:05:50;;;;;;;;;18.67;5.00;;;;;;;;5020396;28;45413;-67
2021/12/29 00:08:15;;;;;;;;;9.00;1.00;;;;;;;;5018040;28;46471;-67
2021/12/29 00:10:40;;;;;;;;;10.33;4.67;;;;;;;;5020761;28;45335;-67
2021/12/29 00:13:06;;;;;;;;;3.33;3.00;;;;;;;;5000183;28;45386;-67
2021/12/29 00:15:32;;;;;;;;;8.67;4.67;;;;;;;;5003193;28;45241;-69
2021/12/29 00:17:58;;;;;;;;;4.00;2.00;;;;;;;;5017345;28;45381;-67
2021/12/29 00:20:28;;;;;;;;;10.67;4.00;;;;;;;;5023342;28;45247;-67
2021/12/29 00:22:53;;;;;;;;;12.33;6.00;;;;;;;;5010169;28;45311;-67
2021/12/29 00:25:19;;;;;;;;;9.00;1.33;;;;;;;;5025658;28;45430;-67
2021/12/29 00:27:44;;;;;;;;;4.00;3.00;;;;;;;;5004346;28;48496;-68
2021/12/29 00:30:10;;;;;;;;;6.67;5.33;;;;;;;;5025835;28;45399;-68
2021/12/29 00:32:35;;;;;;;;;6.00;4.00;;;;;;;;5021676;28;45545;-68
2021/12/29 00:35:01;;;;;;;;;14.00;7.33;;;;;;;;5025884;28;45280;-68
2021/12/29 00:37:26;;;;;;;;;4.67;3.67;;;;;;;;5014588;28;45352;-65
2021/12/29 00:39:52;;;;;;;;;6.00;4.33;;;;;;;;5025636;28;45386;-66
2021/12/29 00:42:18;;;;;;;;;5.67;3.33;;;;;;;;5016174;28;45632;-66
2021/12/29 00:44:43;;;;;;;;;8.67;2.67;;;;;;;;5025945;28;45380;-68
2021/12/29 00:47:10;;;;;;;;;7.00;2.00;;;;;;;;5019264;28;45362;-67
2021/12/29 00:49:37;;;;;;;;;5.67;3.67;;;;;;;;5025441;28;45379;-66
2021/12/29 00:52:05;;;;;;;;;8.67;3.67;;;;;;;;4999044;28;45386;-67
2021/12/29 00:54:31;;;;;;;;;7.33;4.33;;;;;;;;5007633;28;45570;-66
2021/12/29 00:56:56;;;;;;;;;9.67;5.33;;;;;;;;5018560;28;46282;-66
2021/12/29 00:59:23;;;;;;;;;7.33;5.67;;;;;;;;5024651;28;45237;-67
2021/12/29 01:01:48;;;;;;;;;9.00;5.33;;;;;;;;5004290;28;45360;-67
2021/12/29 01:04:14;;;;;;;;;14.67;8.33;;;;;;;;5023890;28;45463;-68
2021/12/29 01:06:39;;;;;;;;;8.00;4.00;;;;;;;;5018213;28;45525;-67
2021/12/29 01:09:05;;;;;;;;;5.33;3.33;;;;;;;;5003872;28;45713;-67
2021/12/29 01:11:30;;;;;;;;;9.33;4.00;;;;;;;;5012867;28;45461;-67
2021/12/29 01:13:55;;;;;;;;;9.00;3.67;;;;;;;;5025423;28;45279;-67
2021/12/29 01:19:04;;;;;;;;;11.33;4.33;;;;;;;;5019250;28;45322;-67
2021/12/29 01:21:31;;;;;;;;;10.33;5.00;;;;;;;;5005204;28;45491;-67
2021/12/29 01:23:56;;;;;;;;;12.00;5.00;;;;;;;;4999691;28;45400;-67
2021/12/29 01:26:21;;;;;;;;;7.33;5.00;;;;;;;;5020751;28;46505;-67
2021/12/29 01:28:47;;;;;;;;;10.00;4.67;;;;;;;;5024039;28;45319;-67
2021/12/29 01:31:12;;;;;;;;;7.00;4.67;;;;;;;;5021065;28;45440;-67
2021/12/29 01:33:37;;;;;;;;;8.33;3.00;;;;;;;;5024541;28;45502;-69
2021/12/29 01:36:03;;;;;;;;;7.33;5.00;;;;;;;;5021498;28;45683;-68
2021/12/29 01:38:28;;;;;;;;;7.00;5.00;;;;;;;;5016405;28;45353;-67
2021/12/29 01:40:53;;;;;;;;;6.00;5.33;;;;;;;;5004720;28;45421;-67
2021/12/29 01:43:19;;;;;;;;;14.00;7.33;;;;;;;;5018070;28;45401;-67
2021/12/29 01:45:44;;;;;;;;;7.33;5.00;;;;;;;;5023010;28;46263;-67
2021/12/29 01:48:10;;;;;;;;;13.00;3.33;;;;;;;;5019941;28;45390;-67
2021/12/29 01:50:35;;;;;;;;;7.67;4.00;;;;;;;;5023081;28;45290;-67
2021/12/29 01:53:07;;;;;;;;;9.00;5.00;;;;;;;;5017666;28;45462;-67
2021/12/29 01:55:33;;;;;;;;;9.33;5.67;;;;;;;;5004661;28;47035;-67
2021/12/29 01:57:58;;;;;;;;;7.33;4.00;;;;;;;;5019398;28;45399;-67
2021/12/29 02:00:25;;;;;;;;;10.67;4.67;;;;;;;;5023335;28;45445;-67
2021/12/29 02:02:51;;;;;;;;;11.33;5.67;;;;;;;;5018897;28;45904;-67
2021/12/29 02:05:16;;;;;;;;;8.00;4.67;;;;;;;;5023532;28;46295;-68
2021/12/29 02:07:42;;;;;;;;;9.67;5.00;;;;;;;;5017517;28;45462;-67
2021/12/29 02:10:08;;;;;;;;;11.67;6.67;;;;;;;;5006266;28;45256;-67
2021/12/29 02:12:34;;;;;;;;;5.00;3.33;;;;;;;;5017977;28;45128;-67
2021/12/29 02:14:59;;;;;;;;;7.67;5.00;;;;;;;;5006016;28;47449;-67
2021/12/29 02:17:24;;;;;;;;;10.00;4.00;;;;;;;;4999666;28;45518;-67
2021/12/29 02:19:51;;;;;;;;;11.33;6.00;;;;;;;;5023716;28;45355;-67
2021/12/29 02:25:05;;;;;;;;;9.67;4.67;;;;;;;;5020804;28;46149;-67
2021/12/29 02:27:31;;;;;;;;;8.33;3.67;;;;;;;;5019730;28;45651;-67
2021/12/29 02:29:56;;;;;;;;;12.67;7.33;;;;;;;;5005981;28;45488;-67
2021/12/29 02:32:22;;;;;;;;;6.33;6.00;;;;;;;;5020136;28;45259;-67
2021/12/29 02:34:47;;;;;;;;;7.00;4.00;;;;;;;;5021351;28;47304;-67
2021/12/29 02:37:19;;;;;;;;;10.67;7.00;;;;;;;;5001849;28;45241;-67
2021/12/29 02:39:44;;;;;;;;;13.00;5.67;;;;;;;;5004990;28;45409;-67
2021/12/29 02:42:10;;;;;;;;;9.67;6.00;;;;;;;;5015092;28;45613;-67
2021/12/29 02:44:40;;;;;;;;;13.67;9.67;;;;;;;;5020982;28;47120;-67
2021/12/29 02:47:05;;;;;;;;;9.67;5.67;;;;;;;;5017336;28;45980;-67
2021/12/29 02:49:31;;;;;;;;;7.67;5.67;;;;;;;;5005559;28;45302;-67
2021/12/29 02:51:56;;;;;;;;;8.00;5.00;;;;;;;;5015704;28;45506;-67
2021/12/29 02:54:21;;;;;;;;;8.33;6.00;;;;;;;;5022698;28;45559;-67
2021/12/29 02:56:48;;;;;;;;;6.67;4.00;;;;;;;;5016906;28;45421;-69
2021/12/29 02:59:14;;;;;;;;;17.33;4.67;;;;;;;;5023434;28;45327;-67
2021/12/29 03:01:39;;;;;;;;;9.33;5.00;;;;;;;;5003155;28;45378;-67
2021/12/29 03:04:06;;;;;;;;;8.33;7.00;;;;;;;;5022407;28;45520;-67
2021/12/29 03:06:31;;;;;;;;;9.33;3.67;;;;;;;;5016514;28;45553;-67
2021/12/29 03:08:56;;;;;;;;;9.67;4.00;;;;;;;;5023277;28;45248;-67
2021/12/29 03:11:22;;;;;;;;;11.33;4.33;;;;;;;;5005220;28;45238;-67
2021/12/29 03:13:47;;;;;;;;;3.33;1.33;;;;;;;;5022612;28;45607;-67
2021/12/29 03:16:13;;;;;;;;;5.00;3.00;;;;;;;;5019136;28;45204;-67
2021/12/29 03:18:39;;;;;;;;;6.00;4.00;;;;;;;;5023138;28;45219;-67
2021/12/29 03:21:04;;;;;;;;;9.00;6.33;;;;;;;;5019642;28;45517;-67
2021/12/29 03:23:30;;;;;;;;;7.33;5.00;;;;;;;;5010309;28;45514;-66
2021/12/29 03:25:55;;;;;;;;;6.00;4.33;;;;;;;;5019103;28;45675;-66
2021/12/29 03:28:22;;;;;;;;;11.67;4.67;;;;;;;;5022013;28;45374;-66
2021/12/29 03:30:51;;;;;;;;;8.67;3.00;;;;;;;;5021469;28;45573;-66
2021/12/29 03:33:17;;;;;;;;;7.67;5.33;;;;;;;;5021651;28;45571;-66
2021/12/29 03:35:44;;;;;;;;;6.00;3.00;;;;;;;;5020712;28;45315;-66
2021/12/29 03:38:11;;;;;;;;;7.33;3.67;;;;;;;;5014402;28;45220;-66
2021/12/29 03:40:36;;;;;;;;;9.00;5.00;;;;;;;;5003467;28;45403;-67
2021/12/29 03:43:03;;;;;;;;;5.33;5.33;;;;;;;;5015008;28;45574;-66
2021/12/29 03:45:28;;;;;;;;;10.00;7.00;;;;;;;;5021899;28;45458;-67
2021/12/29 03:47:53;;;;;;;;;5.00;4.00;;;;;;;;5017713;28;45370;-67
2021/12/29 03:50:18;;;;;;;;;4.00;4.00;;;;;;;;5023122;28;45253;-67
2021/12/29 03:52:44;;;;;;;;;8.67;5.00;;;;;;;;4998479;28;47021;-67
2021/12/29 03:55:09;;;;;;;;;1.33;1.33;;;;;;;;5024564;28;45306;-67
2021/12/29 03:57:34;;;;;;;;;5.00;3.00;;;;;;;;5001842;28;45414;-67
2021/12/29 04:00:00;;;;;;;;;9.33;4.67;;;;;;;;5008806;28;45384;-67
2021/12/29 04:02:25;;;;;;;;;6.33;4.00;;;;;;;;5019391;28;46274;-68
2021/12/29 04:04:50;;;;;;;;;2.33;2.33;;;;;;;;5025736;28;45442;-67
2021/12/29 04:07:16;;;;;;;;;3.00;2.67;;;;;;;;5019772;28;45447;-67
2021/12/29 04:09:41;;;;;;;;;7.33;4.00;;;;;;;;5026465;28;45569;-67
2021/12/29 04:12:06;;;;;;;;;9.00;3.00;;;;;;;;5019404;28;46539;-66
2021/12/29 04:14:31;;;;;;;;;9.67;6.33;;;;;;;;5025804;28;45311;-67
2021/12/29 04:16:58;;;;;;;;;8.33;4.33;;;;;;;;5020223;28;45419;-67
2021/12/29 04:19:39;;;;;;;;;7.00;3.00;;;;;;;;5026209;28;45406;-67
2021/12/29 04:22:07;;;;;;;;;8.00;3.00;;;;;;;;5015542;28;46615;-66
2021/12/29 04:24:33;;;;;;;;;5.00;3.00;;;;;;;;5004452;28;45282;-66
2021/12/29 04:26:59;;;;;;;;;8.33;2.00;;;;;;;;5004417;28;45457;-66
2021/12/29 04:29:25;;;;;;;;;1.33;1.33;;;;;;;;5026089;28;45322;-66
2021/12/29 04:31:50;;;;;;;;;5.00;3.67;;;;;;;;5022914;28;45276;-66
2021/12/29 04:34:15;;;;;;;;;8.00;6.00;;;;;;;;5025171;28;45216;-66
2021/12/29 04:36:40;;;;;;;;;5.33;3.33;;;;;;;;5003304;28;46739;-66
2021/12/29 04:39:06;;;;;;;;;4.00;4.00;;;;;;;;5020045;28;45308;-66
2021/12/29 04:41:31;;;;;;;;;6.00;4.00;;;;;;;;5004617;28;47011;-66
2021/12/29 04:43:56;;;;;;;;;2.00;2.00;;;;;;;;5019000;28;45334;-66
2021/12/29 04:46:28;;;;;;;;;5.33;4.33;;;;;;;;5020159;28;45434;-66
2021/12/29 04:48:59;;;;;;;;;2.67;2.00;;;;;;;;5020225;28;45232;-66
2021/12/29 04:51:33;;;;;;;;;3.67;1.67;;;;;;;;5018325;28;45419;-66
2021/12/29 04:53:58;;;;;;;;;9.67;5.67;;;;;;;;5024862;28;45260;-66
2021/12/29 04:56:24;;;;;;;;;1.67;1.33;;;;;;;;5018974;28;45306;-67
2021/12/29 04:58:49;;;;;;;;;3.00;3.00;;;;;;;;5025344;28;45240;-67
2021/12/29 05:01:14;;;;;;;;;1.67;1.67;;;;;;;;5020218;28;46476;-66
2021/12/29 05:03:43;;;;;;;;;1.33;1.33;;;;;;;;5023486;28;45299;-66
2021/12/29 05:08:33;;;;;;;;;2.33;2.00;;;;;;;;5023025;28;45386;-66
2021/12/29 05:11:01;;;;;;;;;3.00;3.00;;;;;;;;5022170;28;46282;-67
2021/12/29 05:13:27;;;;;;;;;5.00;3.00;;;;;;;;5021434;28;45302;-66
2021/12/29 05:15:52;;;;;;;;;5.00;2.00;;;;;;;;5022878;28;45556;-66
2021/12/29 05:18:17;;;;;;;;;4.00;2.00;;;;;;;;5021335;28;45464;-67
2021/12/29 05:20:43;;;;;;;;;1.00;1.00;;;;;;;;5021480;28;45484;-66
2021/12/29 05:23:09;;;;;;;;;2.00;1.00;;;;;;;;5010668;28;45378;-67
2021/12/29 05:25:34;;;;;;;;;1.00;1.00;;;;;;;;5005489;28;45377;-66
2021/12/29 05:27:59;;;;;;;;;0.00;0.00;;;;;;;;5023211;28;45708;-66
2021/12/29 05:30:24;;;;;;;;;2.67;2.67;;;;;;;;5024085;28;45406;-67
2021/12/29 05:32:50;;;;;;;;;1.67;1.33;;;;;;;;5021203;28;45324;-66
2021/12/29 05:35:15;;;;;;;;;1.00;1.00;;;;;;;;5024576;28;45283;-67
2021/12/29 05:37:41;;;;;;;;;3.00;3.00;;;;;;;;5014858;28;45420;-66
2021/12/29 05:40:07;;;;;;;;;4.67;2.67;;;;;;;;5024636;28;45558;-66
2021/12/29 05:42:33;;;;;;;;;3.00;1.00;;;;;;;;5017778;28;45422;-66
2021/12/29 05:45:00;;;;;;;;;1.00;1.00;;;;;;;;5024545;28;45240;-66
2021/12/29 05:47:25;;;;;;;;;1.33;1.33;;;;;;;;5005303;28;45505;-66
2021/12/29 05:49:50;;;;;;;;;1.67;1.67;;;;;;;;5022667;28;47061;-66
2021/12/29 05:52:16;;;;;;;;;4.67;2.33;;;;;;;;5017668;28;45247;-66
2021/12/29 05:54:42;;;;;;;;;3.33;2.00;;;;;;;;5023119;28;45311;-66
2021/12/29 05:57:07;;;;;;;;;2.00;1.00;;;;;;;;5018034;28;45486;-67
2021/12/29 05:59:33;;;;;;;;;1.00;1.00;;;;;;;;5024076;28;45367;-67
2021/12/29 06:01:58;;;;;;;;;1.67;1.67;;;;;;;;5017735;28;45465;-67
2021/12/29 06:04:23;;;;;;;;;2.00;2.00;;;;;;;;5024117;28;45233;-66
2021/12/29 06:06:49;;;;;;;;;2.67;2.67;;;;;;;;5005250;28;45480;-66
2021/12/29 06:09:14;;;;;;;;;3.00;3.00;;;;;;;;5024118;28;45427;-67
2021/12/29 06:11:40;;;;;;;;;3.00;3.00;;;;;;;;4999996;28;45813;-66
2021/12/29 06:14:05;;;;;;;;;5.00;3.67;;;;;;;;5020060;28;45337;-67
2021/12/29 06:16:30;;;;;;;;;2.67;2.67;;;;;;;;5001325;28;45315;-66
2021/12/29 06:18:55;;;;;;;;;2.00;2.00;;;;;;;;5005290;28;47225;-66
2021/12/29 06:21:20;;;;;;;;;6.00;4.00;;;;;;;;5001695;28;45702;-67
2021/12/29 06:23:46;;;;;;;;;5.33;5.00;;;;;;;;5012738;28;45436;-66
2021/12/29 06:26:12;;;;;;;;;8.33;6.00;;;;;;;;5021112;28;45466;-66
2021/12/29 06:28:37;;;;;;;;;3.00;3.00;;;;;;;;5023602;28;46198;-66
2021/12/29 06:31:03;;;;;;;;;5.00;5.00;;;;;;;;5003610;28;45657;-66
2021/12/29 06:33:28;;;;;;;;;8.67;4.33;;;;;;;;5013674;28;45334;-67
2021/12/29 06:35:53;;;;;;;;;4.33;4.33;;;;;;;;5021538;28;45335;-66
2021/12/29 06:38:18;;;;;;;;;5.33;5.00;;;;;;;;5015697;28;45671;-67
2021/12/29 06:40:43;;;;;;;;;7.33;5.00;;;;;;;;5004185;28;45866;-66
2021/12/29 06:43:09;;;;;;;;;6.33;6.33;;;;;;;;5001238;28;45361;-66
2021/12/29 06:45:34;;;;;;;;;12.00;11.00;;;;;;;;5022396;28;45279;-66
2021/12/29 06:47:59;;;;;;;;;6.00;5.33;;;;;;;;5017962;28;46781;-66
2021/12/29 06:50:25;;;;;;;;;7.33;7.33;;;;;;;;5022339;28;45381;-66
2021/12/29 06:52:50;;;;;;;;;9.33;9.00;;;;;;;;5017015;28;45340;-66
2021/12/29 06:55:16;;;;;;;;;9.00;6.33;;;;;;;;5005666;28;45502;-66
2021/12/29 06:57:41;;;;;;;;;6.33;5.33;;;;;;;;5016522;28;45597;-66
2021/12/29 07:00:06;;;;;;;;;8.00;5.33;;;;;;;;5023232;28;45330;-66
2021/12/29 07:02:32;;;;;;;;;8.33;8.33;;;;;;;;5016905;28;45504;-66
2021/12/29 07:04:57;;;;;;;;;5.00;5.00;;;;;;;;5016886;28;45374;-66
2021/12/29 07:07:22;;;;;;;;;10.67;8.00;;;;;;;;5016672;28;45437;-66
2021/12/29 07:09:47;;;;;;;;;8.00;8.00;;;;;;;;5002038;28;45921;-66
2021/12/29 07:12:13;;;;;;;;;9.67;7.00;;;;;;;;5001507;28;45447;-66
2021/12/29 07:14:39;;;;;;;;;10.67;9.00;;;;;;;;5019521;28;45353;-66
2021/12/29 07:17:05;;;;;;;;;9.67;9.67;;;;;;;;5000477;28;47299;-65
2021/12/29 07:19:31;;;;;;;;;7.67;7.67;;;;;;;;5022362;28;45303;-67
2021/12/29 07:21:59;;;;;;;;;11.33;11.00;;;;;;;;5015470;28;45299;-67
2021/12/29 07:24:25;;;;;;;;;7.33;6.67;;;;;;;;5016655;28;45243;-67
2021/12/29 07:26:50;;;;;;;;;8.33;8.33;;;;;;;;5019468;28;46336;-67
2021/12/29 07:29:15;;;;;;;;;9.00;8.00;;;;;;;;5024697;28;45373;-66
2021/12/29 07:31:41;;;;;;;;;11.00;9.33;;;;;;;;5022273;28;45487;-67
2021/12/29 07:34:07;;;;;;;;;12.00;12.00;;;;;;;;5019986;28;45236;-67
2021/12/29 07:36:32;;;;;;;;;9.00;7.67;;;;;;;;5023061;28;45507;-67
2021/12/29 07:38:58;;;;;;;;;7.33;6.33;;;;;;;;5019252;28;45339;-67
2021/12/29 07:41:23;;;;;;;;;3.00;3.00;;;;;;;;5002860;28;45329;-67
2021/12/29 07:43:50;;;;;;;;;11.67;9.00;;;;;;;;5025768;28;45422;-67
2021/12/29 07:46:16;;;;;;;;;13.00;8.67;;;;;;;;5022625;28;45458;-68
2021/12/29 07:48:41;;;;;;;;;8.67;8.33;;;;;;;;5019599;28;45438;-68
2021/12/29 07:51:07;;;;;;;;;12.33;8.67;;;;;;;;5022609;28;45584;-68
2021/12/29 07:53:35;;;;;;;;;12.00;10.33;;;;;;;;5022984;28;45660;-68
2021/12/29 07:56:00;;;;;;;;;9.00;9.00;;;;;;;;5004579;28;46218;-68
2021/12/29 07:58:25;;;;;;;;;10.00;8.67;;;;;;;;5021276;28;45369;-67
2021/12/29 08:00:51;;;;;;;;;5.67;5.67;;;;;;;;5023723;28;45589;-68
2021/12/29 08:03:16;;;;;;;;;9.33;8.00;;;;;;;;5021515;28;45275;-66
2021/12/29 08:05:42;;;;;;;;;9.00;8.33;;;;;;;;5023185;28;45426;-67
2021/12/29 08:08:09;;;;;;;;;11.33;11.00;;;;;;;;5003106;28;45447;-67
2021/12/29 08:10:34;;;;;;;;;9.00;9.00;;;;;;;;5024419;28;45292;-67
2021/12/29 08:13:00;;;;;;;;;11.67;11.00;;;;;;;;5017180;28;45341;-67
2021/12/29 08:15:26;;;;;;;;;9.67;9.00;;;;;;;;5025176;28;45322;-67
2021/12/29 08:17:51;;;;;;;;;13.00;12.00;;;;;;;;5019465;28;45376;-67
2021/12/29 08:20:16;;;;;;;;;12.00;9.00;;;;;;;;5007309;28;45428;-67
2021/12/29 08:22:42;;;;;;;;;12.00;10.67;;;;;;;;5005057;28;45519;-67
2021/12/29 08:25:07;;;;;;;;;9.00;7.33;;;;;;;;5023743;28;46933;-68
2021/12/29 08:27:33;;;;;;;;;10.00;10.00;;;;;;;;5004471;28;45927;-68
2021/12/29 08:29:58;;;;;;;;;10.00;9.00;;;;;;;;5024280;28;45387;-68
2021/12/29 08:32:24;;;;;;;;;9.00;9.00;;;;;;;;4998130;28;45497;-68
2021/12/29 08:34:49;;;;;;;;;11.67;8.67;;;;;;;;5023871;28;45379;-69
2021/12/29 08:37:14;;;;;;;;;14.67;13.00;;;;;;;;5016905;28;45355;-68
2021/12/29 08:39:39;;;;;;;;;12.33;8.67;;;;;;;;5022628;28;45463;-69
2021/12/29 08:42:05;;;;;;;;;10.33;9.00;;;;;;;;5019700;28;45168;-69
2021/12/29 08:44:30;;;;;;;;;9.67;9.00;;;;;;;;5006973;28;48237;-69
2021/12/29 08:46:55;;;;;;;;;6.33;5.67;;;;;;;;5018024;28;45376;-69
2021/12/29 08:49:20;;;;;;;;;7.00;7.00;;;;;;;;5023802;28;45225;-69
2021/12/29 08:51:45;;;;;;;;;5.67;5.67;;;;;;;;5001080;28;45360;-69
2021/12/29 08:54:11;;;;;;;;;11.33;8.00;;;;;;;;5024589;28;46319;-69
2021/12/29 08:56:36;;;;;;;;;8.00;6.00;;;;;;;;5000702;28;45498;-69
2021/12/29 08:59:01;;;;;;;;;10.67;10.00;;;;;;;;5024788;28;45235;-69
2021/12/29 09:01:27;;;;;;;;;10.33;8.00;;;;;;;;5001617;28;47469;-69
2021/12/29 09:03:53;;;;;;;;;9.00;8.00;;;;;;;;5024068;28;45334;-68
2021/12/29 09:06:18;;;;;;;;;12.33;9.00;;;;;;;;5004994;28;46027;-68
2021/12/29 09:08:44;;;;;;;;;8.00;7.00;;;;;;;;5023980;28;45470;-69
2021/12/29 09:11:10;;;;;;;;;6.67;6.67;;;;;;;;5021462;28;45497;-69
2021/12/29 09:13:35;;;;;;;;;9.33;9.33;;;;;;;;5018133;28;45340;-69
2021/12/29 09:16:00;;;;;;;;;9.67;8.33;;;;;;;;5004414;28;45260;-68
2021/12/29 09:18:27;;;;;;;;;10.67;7.00;;;;;;;;5020877;28;45365;-69
2021/12/29 09:20:53;;;;;;;;;11.33;9.00;;;;;;;;5003072;28;45324;-68
2021/12/29 09:23:18;;;;;;;;;10.33;6.33;;;;;;;;5018709;28;47137;-67
2021/12/29 09:25:45;;;;;;;;;6.00;6.00;;;;;;;;5021330;28;45371;-67
2021/12/29 09:28:11;;;;;;;;;5.33;4.00;;;;;;;;5020285;28;45365;-68
2021/12/29 09:30:37;;;;;;;;;8.33;8.33;;;;;;;;5022890;28;45414;-67
2021/12/29 09:33:03;;;;;;;;;5.67;5.33;;;;;;;;5019861;28;45719;-67
2021/12/29 09:35:28;;;;;;;;;8.00;7.33;;;;;;;;5022693;28;45688;-67
2021/12/29 09:37:54;;;;;;;;;7.00;6.33;;;;;;;;5014454;28;45497;-67
2021/12/29 09:40:21;;;;;;;;;6.67;3.67;;;;;;;;5024590;28;45390;-67
2021/12/29 09:42:47;;;;;;;;;10.00;10.00;;;;;;;;5000093;28;47935;-67
2021/12/29 09:45:13;;;;;;;;;7.00;7.00;;;;;;;;5024310;28;45461;-67
2021/12/29 09:47:38;;;;;;;;;2.00;2.00;;;;;;;;5017417;28;45332;-67
2021/12/29 09:50:05;;;;;;;;;6.67;6.67;;;;;;;;5006311;28;45320;-68
2021/12/29 09:52:33;;;;;;;;;5.33;5.33;;;;;;;;5016057;28;46749;-68
2021/12/29 09:54:59;;;;;;;;;7.67;7.67;;;;;;;;5023854;28;45276;-68
2021/12/29 09:57:24;;;;;;;;;11.67;6.67;;;;;;;;5017242;28;45602;-68
2021/12/29 09:59:49;;;;;;;;;9.33;7.00;;;;;;;;5003064;28;45476;-67
2021/12/29 10:02:14;;;;;;;;;7.33;7.33;;;;;;;;5015365;28;45519;-66
2021/12/29 10:04:40;;;;;;;;;7.00;7.00;;;;;;;;5005285;28;45375;-66
2021/12/29 10:07:15;;;;;;;;;3.33;3.33;;;;;;;;5001976;28;45551;-68
2021/12/29 10:09:41;;;;;;;;;8.00;6.00;;;;;;;;5023993;28;45398;-66
2021/12/29 10:12:11;;;;;;;;;7.00;7.00;;;;;;;;5020040;28;46353;-68
2021/12/29 10:14:36;;;;;;;;;9.33;7.67;;;;;;;;5019747;28;45287;-67
2021/12/29 10:17:08;;;;;;;;;13.00;9.00;;;;;;;;5019089;28;45283;-68
2021/12/29 10:19:37;;;;;;;;;6.33;6.33;;;;;;;;5023391;28;46281;-69
2021/12/29 10:22:02;;;;;;;;;7.00;7.00;;;;;;;;5014651;28;46699;-67
2021/12/29 10:24:27;;;;;;;;;7.33;6.00;;;;;;;;5015648;28;45413;-66
2021/12/29 10:26:55;;;;;;;;;5.33;5.33;;;;;;;;5021177;28;45571;-67
2021/12/29 10:29:21;;;;;;;;;4.67;4.67;;;;;;;;5023540;28;45248;-67
2021/12/29 10:31:51;;;;;;;;;5.67;5.33;;;;;;;;5000889;28;48232;-67
2021/12/29 10:34:29;;;;;;;;;2.00;2.00;;;;;;;;5017790;28;45208;-68
2021/12/29 10:36:56;;;;;;;;;2.67;2.00;;;;;;;;5018118;28;45372;-67
2021/12/29 10:39:41;;;;;;;;;2.00;2.00;;;;;;;;5019899;28;45578;-67
2021/12/29 10:42:06;;;;;;;;;3.00;2.00;;;;;;;;5017024;28;46663;-67
2021/12/29 10:44:34;;;;;;;;;2.67;2.33;;;;;;;;5023090;28;45396;-67
2021/12/29 10:47:00;;;;;;;;;1.00;1.00;;;;;;;;5016730;28;45540;-67
2021/12/29 10:49:27;;;;;;;;;3.00;3.00;;;;;;;;5023084;28;45347;-67
2021/12/29 10:51:54;;;;;;;;;3.67;2.33;;;;;;;;5016438;28;45409;-68
2021/12/29 10:54:20;;;;;;;;;6.33;3.00;;;;;;;;5022570;28;45311;-66
2021/12/29 10:56:55;;;;;;;;;2.67;2.67;;;;;;;;5016538;28;45383;-66
2021/12/29 10:59:23;;;;;;;;;2.33;2.33;;;;;;;;5016265;28;45521;-68
2021/12/29 11:01:49;;;;;;;;;8.67;8.67;;;;;;;;5016187;28;46614;-68
2021/12/29 11:04:14;;;;;;;;;4.00;4.00;;;;;;;;5022203;28;45387;-68
2021/12/29 11:06:43;;;;;;;;;1.67;1.00;;;;;;;;5015943;28;45358;-68
2021/12/29 11:09:09;;;;;;;;;0.00;0.00;;;;;;;;5018991;28;45487;-68
2021/12/29 11:11:39;;;;;;;;;1.00;1.00;;;;;;;;5016912;28;46456;-68
2021/12/29 11:14:08;;;;;;;;;1.00;1.00;;;;;;;;5019307;28;45354;-68
2021/12/29 11:16:34;;;;;;;;;2.00;2.00;;;;;;;;5018685;28;45438;-69
2021/12/29 11:18:59;;;;;;;;;2.33;2.33;;;;;;;;5005076;28;45434;-68
2021/12/29 11:21:26;;;;;;;;;1.00;1.00;;;;;;;;5019289;28;46440;-68
2021/12/29 11:23:51;;;;;;;;;0.33;0.33;;;;;;;;5004508;28;45403;-68
2021/12/29 11:26:27;;;;;;;;;0.67;0.67;;;;;;;;5019603;28;45124;-68
2021/12/29 11:28:52;;;;;;;;;1.67;1.67;;;;;;;;5022456;28;45612;-68
2021/12/29 11:31:17;;;;;;;;;2.00;1.00;;;;;;;;5018078;28;45236;-66
2021/12/29 11:33:43;;;;;;;;;1.67;1.67;;;;;;;;5011602;28;45291;-67
2021/12/29 11:36:08;;;;;;;;;1.00;1.00;;;;;;;;4999790;28;45704;-67
2021/12/29 11:38:34;;;;;;;;;0.00;0.00;;;;;;;;5019541;28;45383;-67
2021/12/29 11:41:00;;;;;;;;;1.00;1.00;;;;;;;;5020386;28;45985;-68
2021/12/29 11:43:26;;;;;;;;;0.00;0.00;;;;;;;;5016736;28;45482;-68
2021/12/29 11:45:52;;;;;;;;;0.00;0.00;;;;;;;;5015703;28;45197;-68
2021/12/29 11:48:21;;;;;;;;;1.00;1.00;;;;;;;;5018560;28;45572;-68
2021/12/29 11:50:49;;;;;;;;;0.33;0.33;;;;;;;;5019221;28;46050;-68
2021/12/29 11:53:14;;;;;;;;;1.67;1.67;;;;;;;;4999301;28;45708;-68
2021/12/29 11:55:44;;;;;;;;;0.67;0.67;;;;;;;;5022640;28;46138;-66
2021/12/29 11:58:18;;;;;;;;;1.00;1.00;;;;;;;;5001886;28;45388;-67
2021/12/29 12:00:47;;;;;;;;;1.00;0.00;;;;;;;;5019608;28;45501;-67
2021/12/29 12:03:13;;;;;;;;;0.00;0.00;;;;;;;;5017775;28;45572;-67
2021/12/29 12:05:42;;;;;;;;;0.00;0.00;;;;;;;;5000447;28;45494;-68
2021/12/29 12:08:09;;;;;;;;;1.00;1.00;;;;;;;;5014505;28;45588;-68
2021/12/29 12:10:36;;;;;;;;;0.67;0.67;;;;;;;;5020285;28;45766;-67
2021/12/29 12:13:19;;;;;;;;;2.00;2.00;;;;;;;;5013266;28;45512;-67
2021/12/29 12:15:44;;;;;;;;;4.33;4.00;;;;;;;;5009448;28;45248;-68
2021/12/29 12:18:10;;;;;;;;;4.00;2.33;;;;;;;;5022119;28;45295;-67
2021/12/29 12:20:42;;;;;;;;;1.00;1.00;;;;;;;;5023698;28;45944;-67
2021/12/29 12:23:08;;;;;;;;;1.67;1.67;;;;;;;;5012022;28;45434;-67
2021/12/29 12:25:34;;;;;;;;;1.33;1.00;;;;;;;;5024134;28;45384;-67
2021/12/29 12:28:03;;;;;;;;;0.00;0.00;;;;;;;;5023558;28;45373;-67
2021/12/29 12:30:36;;;;;;;;;3.33;1.67;;;;;;;;5024832;28;45523;-67
2021/12/29 12:33:12;;;;;;;;;1.00;1.00;;;;;;;;5015223;28;45318;-67
2021/12/29 12:35:37;;;;;;;;;2.00;2.00;;;;;;;;5023967;28;45323;-67
2021/12/29 12:38:15;;;;;;;;;0.67;0.67;;;;;;;;5017474;28;45361;-67
2021/12/29 12:40:41;;;;;;;;;0.67;0.67;;;;;;;;5023834;28;45408;-67
2021/12/29 12:43:07;;;;;;;;;3.00;1.00;;;;;;;;5020373;28;45582;-67
2021/12/29 12:45:35;;;;;;;;;1.00;1.00;;;;;;;;5023611;28;45481;-68
2021/12/29 12:48:01;;;;;;;;;1.00;1.00;;;;;;;;5017863;28;45446;-67
2021/12/29 12:50:27;;;;;;;;;1.00;1.00;;;;;;;;5024143;28;45705;-67
2021/12/29 12:52:55;;;;;;;;;3.00;1.67;;;;;;;;5017521;28;45331;-67
2021/12/29 12:55:20;;;;;;;;;2.33;1.00;;;;;;;;5006389;28;45454;-67
2021/12/29 12:57:47;;;;;;;;;3.67;3.67;;;;;;;;5018178;28;46287;-68
2021/12/29 13:00:18;;;;;;;;;2.00;2.00;;;;;;;;5024785;28;46723;-68
2021/12/29 13:02:46;;;;;;;;;2.00;2.00;;;;;;;;5018342;28;45393;-68
2021/12/29 13:05:14;;;;;;;;;3.67;3.00;;;;;;;;5024418;28;45314;-68
2021/12/29 13:07:41;;;;;;;;;2.00;2.00;;;;;;;;5018408;28;45362;-68
2021/12/29 13:10:08;;;;;;;;;2.00;2.00;;;;;;;;5024559;28;46383;-69
2021/12/29 13:12:36;;;;;;;;;1.00;1.00;;;;;;;;5018270;28;45408;-68
2021/12/29 13:15:06;;;;;;;;;1.67;1.00;;;;;;;;5020102;28;45342;-68
2021/12/29 13:17:31;;;;;;;;;1.00;1.00;;;;;;;;5018995;28;45538;-68
2021/12/29 13:19:57;;;;;;;;;2.00;2.00;;;;;;;;5023709;28;46222;-68
2021/12/29 13:22:26;;;;;;;;;2.00;2.00;;;;;;;;5014777;28;45454;-68
2021/12/29 13:24:51;;;;;;;;;2.67;2.33;;;;;;;;5021351;28;45319;-68
2021/12/29 13:27:20;;;;;;;;;4.00;2.67;;;;;;;;5016605;28;45564;-68
2021/12/29 13:29:55;;;;;;;;;2.00;2.00;;;;;;;;5024030;28;45533;-68
2021/12/29 13:32:20;;;;;;;;;2.33;1.00;;;;;;;;5015765;28;45236;-68
2021/12/29 13:34:45;;;;;;;;;1.00;0.00;;;;;;;;5022418;28;45439;-68
2021/12/29 13:37:11;;;;;;;;;0.00;0.00;;;;;;;;5017599;28;45699;-68
2021/12/29 13:39:36;;;;;;;;;2.00;0.33;;;;;;;;5022332;28;45569;-71
2021/12/29 13:42:01;;;;;;;;;0.00;0.00;;;;;;;;5017212;28;45426;-68
2021/12/29 13:44:28;;;;;;;;;0.00;0.00;;;;;;;;5022703;28;45413;-68
2021/12/29 13:46:53;;;;;;;;;1.00;0.00;;;;;;;;5017999;28;45755;-68
2021/12/29 13:49:19;;;;;;;;;0.00;0.00;;;;;;;;5023620;28;45295;-68
2021/12/29 13:51:47;;;;;;;;;1.00;0.00;;;;;;;;5017745;28;45440;-68
2021/12/29 13:54:14;;;;;;;;;1.00;0.00;;;;;;;;5023863;28;45419;-68
2021/12/29 13:56:40;;;;;;;;;1.67;0.00;;;;;;;;5000177;28;45519;-68
2021/12/29 13:59:09;;;;;;;;;0.00;0.00;;;;;;;;5023897;28;46148;-68
2021/12/29 14:01:36;;;;;;;;;0.00;0.00;;;;;;;;5017572;28;45224;-68
2021/12/29 14:04:01;;;;;;;;;0.67;0.67;;;;;;;;5023408;28;45294;-68
2021/12/29 14:06:27;;;;;;;;;1.00;1.00;;;;;;;;5018504;28;45893;-68
2021/12/29 14:08:52;;;;;;;;;1.00;1.00;;;;;;;;5018753;28;46200;-68
2021/12/29 14:11:18;;;;;;;;;2.00;1.00;;;;;;;;5019492;28;45359;-68
2021/12/29 14:13:49;;;;;;;;;0.00;0.00;;;;;;;;5019370;28;45621;-68
2021/12/29 14:16:16;;;;;;;;;0.00;0.00;;;;;;;;5020517;28;45506;-68
2021/12/29 14:18:54;;;;;;;;;0.33;0.33;;;;;;;;5023076;28;45473;-68
2021/12/29 14:21:21;;;;;;;;;0.00;0.00;;;;;;;;5020200;28;45434;-68
2021/12/29 14:23:51;;;;;;;;;0.00;0.00;;;;;;;;5019582;28;45493;-68
2021/12/29 14:26:16;;;;;;;;;0.00;0.00;;;;;;;;5021713;28;45172;-68
2021/12/29 14:28:49;;;;;;;;;0.33;0.33;;;;;;;;4998798;28;47803;-68
2021/12/29 14:31:14;;;;;;;;;0.00;0.00;;;;;;;;5020404;28;45413;-68
2021/12/29 14:33:41;;;;;;;;;1.00;1.00;;;;;;;;4997795;28;45321;-68
2021/12/29 14:36:08;;;;;;;;;0.33;0.33;;;;;;;;5003969;28;46513;-68
2021/12/29 14:38:34;;;;;;;;;0.00;0.00;;;;;;;;5018885;28;46877;-71
2021/12/29 14:40:59;;;;;;;;;3.33;2.00;;;;;;;;5003681;28;45427;-68
2021/12/29 14:43:28;;;;;;;;;0.00;0.00;;;;;;;;5001217;28;45340;-68